sensor_id;sensor_type;location;lat;lon;timestamp;P1;durP1;ratioP1;P2;durP2;ratioP2
5774;SDS011;2913;51.120;6.772;2023-05-10T00:01:25;18.60;;;10.25;;
5774;SDS011;2913;51.120;6.772;2023-05-10T00:03:50;17.42;;;9.95;;
5774;SDS011;2913;51.120;6.772;2023-05-10T00:06:18;17.45;;;9.48;;
5774;SDS011;2913;51.120;6.772;2023-05-10T00:08:44;19.80;;;10.30;;
5774;SDS011;2913;51.120;6.772;2023-05-10T00:11:15;20.65;;;11.23;;
5774;SDS011;2913;51.120;6.772;2023-05-10T00:13:42;20.48;;;11.32;;
5774;SDS011;2913;51.120;6.772;2023-05-10T00:16:10;22.23;;;10.85;;
5774;SDS011;2913;51.120;6.772;2023-05-10T00:18:39;22.17;;;10.65;;
5774;SDS011;2913;51.120;6.772;2023-05-10T00:21:05;21.33;;;11.43;;
5774;SDS011;2913;51.120;6.772;2023-05-10T00:23:31;23.38;;;10.52;;
5774;SDS011;2913;51.120;6.772;2023-05-10T00:25:59;25.05;;;11.68;;
5774;SDS011;2913;51.120;6.772;2023-05-10T00:28:25;24.23;;;11.13;;
5774;SDS011;2913;51.120;6.772;2023-05-10T00:30:55;20.52;;;11.38;;
5774;SDS011;2913;51.120;6.772;2023-05-10T00:33:23;20.48;;;10.90;;
5774;SDS011;2913;51.120;6.772;2023-05-10T00:35:51;23.20;;;11.35;;
5774;SDS011;2913;51.120;6.772;2023-05-10T00:38:17;23.13;;;11.60;;
5774;SDS011;2913;51.120;6.772;2023-05-10T00:40:43;21.10;;;10.70;;
5774;SDS011;2913;51.120;6.772;2023-05-10T00:43:09;20.48;;;10.95;;
5774;SDS011;2913;51.120;6.772;2023-05-10T00:45:34;21.20;;;10.30;;
5774;SDS011;2913;51.120;6.772;2023-05-10T00:48:01;19.10;;;9.60;;
5774;SDS011;2913;51.120;6.772;2023-05-10T00:50:28;18.52;;;10.02;;
5774;SDS011;2913;51.120;6.772;2023-05-10T00:52:55;17.33;;;9.60;;
5774;SDS011;2913;51.120;6.772;2023-05-10T00:55:22;17.10;;;9.02;;
5774;SDS011;2913;51.120;6.772;2023-05-10T00:57:48;19.00;;;8.55;;
5774;SDS011;2913;51.120;6.772;2023-05-10T01:00:14;20.70;;;8.90;;
5774;SDS011;2913;51.120;6.772;2023-05-10T01:02:44;16.77;;;8.23;;
5774;SDS011;2913;51.120;6.772;2023-05-10T01:05:11;18.73;;;7.85;;
5774;SDS011;2913;51.120;6.772;2023-05-10T01:07:37;15.75;;;7.90;;
5774;SDS011;2913;51.120;6.772;2023-05-10T01:15:11;19.58;;;7.53;;
5774;SDS011;2913;51.120;6.772;2023-05-10T01:17:39;11.73;;;7.07;;
5774;SDS011;2913;51.120;6.772;2023-05-10T01:20:11;12.13;;;6.80;;
5774;SDS011;2913;51.120;6.772;2023-05-10T01:31:24;17.15;;;7.07;;
5774;SDS011;2913;51.120;6.772;2023-05-10T01:34:17;14.55;;;6.97;;
5774;SDS011;2913;51.120;6.772;2023-05-10T01:36:51;17.65;;;6.45;;
5774;SDS011;2913;51.120;6.772;2023-05-10T01:42:06;14.65;;;6.25;;
5774;SDS011;2913;51.120;6.772;2023-05-10T01:50:02;13.82;;;5.57;;
5774;SDS011;2913;51.120;6.772;2023-05-10T01:52:36;13.25;;;5.30;;
5774;SDS011;2913;51.120;6.772;2023-05-10T01:55:06;11.32;;;5.35;;
5774;SDS011;2913;51.120;6.772;2023-05-10T01:57:37;10.80;;;4.38;;
5774;SDS011;2913;51.120;6.772;2023-05-10T02:00:06;9.48;;;4.85;;
5774;SDS011;2913;51.120;6.772;2023-05-10T02:02:39;11.63;;;4.50;;
5774;SDS011;2913;51.120;6.772;2023-05-10T02:05:07;7.20;;;3.95;;
5774;SDS011;2913;51.120;6.772;2023-05-10T02:07:35;12.10;;;4.15;;
5774;SDS011;2913;51.120;6.772;2023-05-10T02:10:05;12.15;;;4.47;;
5774;SDS011;2913;51.120;6.772;2023-05-10T02:12:36;10.98;;;4.13;;
5774;SDS011;2913;51.120;6.772;2023-05-10T02:15:10;8.90;;;3.50;;
5774;SDS011;2913;51.120;6.772;2023-05-10T02:17:37;11.02;;;4.50;;
5774;SDS011;2913;51.120;6.772;2023-05-10T02:20:07;13.55;;;4.70;;
5774;SDS011;2913;51.120;6.772;2023-05-10T02:22:35;8.65;;;4.30;;
5774;SDS011;2913;51.120;6.772;2023-05-10T02:25:01;7.88;;;4.68;;
5774;SDS011;2913;51.120;6.772;2023-05-10T02:27:31;11.25;;;4.28;;
5774;SDS011;2913;51.120;6.772;2023-05-10T02:29:59;11.20;;;5.05;;
5774;SDS011;2913;51.120;6.772;2023-05-10T02:32:28;7.90;;;4.88;;
5774;SDS011;2913;51.120;6.772;2023-05-10T02:34:55;10.05;;;4.80;;
5774;SDS011;2913;51.120;6.772;2023-05-10T02:37:21;10.60;;;4.78;;
5774;SDS011;2913;51.120;6.772;2023-05-10T02:39:50;13.10;;;5.75;;
5774;SDS011;2913;51.120;6.772;2023-05-10T02:42:19;18.95;;;5.68;;
5774;SDS011;2913;51.120;6.772;2023-05-10T02:44:50;8.57;;;4.63;;
5774;SDS011;2913;51.120;6.772;2023-05-10T02:47:21;10.02;;;4.72;;
5774;SDS011;2913;51.120;6.772;2023-05-10T02:49:46;14.15;;;5.65;;
5774;SDS011;2913;51.120;6.772;2023-05-10T02:52:13;14.70;;;5.80;;
5774;SDS011;2913;51.120;6.772;2023-05-10T02:54:43;15.00;;;5.70;;
5774;SDS011;2913;51.120;6.772;2023-05-10T02:57:11;12.23;;;5.22;;
5774;SDS011;2913;51.120;6.772;2023-05-10T02:59:43;10.68;;;5.22;;
5774;SDS011;2913;51.120;6.772;2023-05-10T03:02:10;11.93;;;5.70;;
5774;SDS011;2913;51.120;6.772;2023-05-10T03:04:39;11.95;;;5.40;;
5774;SDS011;2913;51.120;6.772;2023-05-10T03:07:05;12.77;;;6.03;;
5774;SDS011;2913;51.120;6.772;2023-05-10T03:09:31;9.68;;;5.95;;
5774;SDS011;2913;51.120;6.772;2023-05-10T03:12:02;12.32;;;5.93;;
5774;SDS011;2913;51.120;6.772;2023-05-10T03:20:04;12.75;;;5.78;;
5774;SDS011;2913;51.120;6.772;2023-05-10T03:22:37;16.30;;;6.57;;
5774;SDS011;2913;51.120;6.772;2023-05-10T03:25:10;12.50;;;6.32;;
5774;SDS011;2913;51.120;6.772;2023-05-10T03:27:38;12.02;;;6.28;;
5774;SDS011;2913;51.120;6.772;2023-05-10T03:30:07;15.02;;;6.70;;
5774;SDS011;2913;51.120;6.772;2023-05-10T03:32:37;14.65;;;6.82;;
5774;SDS011;2913;51.120;6.772;2023-05-10T03:35:07;14.35;;;6.72;;
5774;SDS011;2913;51.120;6.772;2023-05-10T03:37:36;18.05;;;7.32;;
5774;SDS011;2913;51.120;6.772;2023-05-10T03:40:02;14.43;;;7.25;;
5774;SDS011;2913;51.120;6.772;2023-05-10T03:42:28;14.93;;;7.57;;
5774;SDS011;2913;51.120;6.772;2023-05-10T03:44:54;13.75;;;7.45;;
5774;SDS011;2913;51.120;6.772;2023-05-10T03:47:20;20.45;;;8.00;;
5774;SDS011;2913;51.120;6.772;2023-05-10T03:49:48;16.98;;;7.65;;
5774;SDS011;2913;51.120;6.772;2023-05-10T03:52:15;20.23;;;9.43;;
5774;SDS011;2913;51.120;6.772;2023-05-10T03:54:43;31.50;;;10.38;;
5774;SDS011;2913;51.120;6.772;2023-05-10T03:57:09;19.55;;;9.57;;
5774;SDS011;2913;51.120;6.772;2023-05-10T03:59:34;22.25;;;9.68;;
5774;SDS011;2913;51.120;6.772;2023-05-10T04:02:00;21.52;;;9.15;;
5774;SDS011;2913;51.120;6.772;2023-05-10T04:04:28;22.60;;;10.25;;
5774;SDS011;2913;51.120;6.772;2023-05-10T04:06:56;31.95;;;11.32;;
5774;SDS011;2913;51.120;6.772;2023-05-10T04:09:24;30.35;;;11.98;;
5774;SDS011;2913;51.120;6.772;2023-05-10T04:11:50;32.80;;;12.85;;
5774;SDS011;2913;51.120;6.772;2023-05-10T04:14:16;29.95;;;11.73;;
5774;SDS011;2913;51.120;6.772;2023-05-10T04:16:41;39.42;;;13.30;;
5774;SDS011;2913;51.120;6.772;2023-05-10T04:19:07;33.65;;;13.75;;
5774;SDS011;2913;51.120;6.772;2023-05-10T04:21:32;37.15;;;13.57;;
5774;SDS011;2913;51.120;6.772;2023-05-10T04:23:58;33.83;;;14.70;;
5774;SDS011;2913;51.120;6.772;2023-05-10T04:26:26;32.40;;;14.35;;
5774;SDS011;2913;51.120;6.772;2023-05-10T04:28:51;36.47;;;14.68;;
5774;SDS011;2913;51.120;6.772;2023-05-10T04:31:19;36.65;;;14.75;;
5774;SDS011;2913;51.120;6.772;2023-05-10T04:33:45;34.65;;;14.52;;
5774;SDS011;2913;51.120;6.772;2023-05-10T04:36:13;46.97;;;15.45;;
5774;SDS011;2913;51.120;6.772;2023-05-10T04:38:38;41.58;;;15.27;;
5774;SDS011;2913;51.120;6.772;2023-05-10T04:41:08;37.42;;;14.98;;
5774;SDS011;2913;51.120;6.772;2023-05-10T04:43:35;36.45;;;14.50;;
5774;SDS011;2913;51.120;6.772;2023-05-10T04:46:01;41.15;;;14.90;;
5774;SDS011;2913;51.120;6.772;2023-05-10T04:48:29;37.15;;;14.27;;
5774;SDS011;2913;51.120;6.772;2023-05-10T04:50:55;30.63;;;14.05;;
5774;SDS011;2913;51.120;6.772;2023-05-10T04:53:21;35.30;;;13.75;;
5774;SDS011;2913;51.120;6.772;2023-05-10T04:55:47;37.65;;;13.55;;
5774;SDS011;2913;51.120;6.772;2023-05-10T04:58:13;33.08;;;13.45;;
5774;SDS011;2913;51.120;6.772;2023-05-10T05:00:39;31.02;;;12.32;;
5774;SDS011;2913;51.120;6.772;2023-05-10T05:03:05;23.45;;;11.38;;
5774;SDS011;2913;51.120;6.772;2023-05-10T05:05:31;22.98;;;11.63;;
5774;SDS011;2913;51.120;6.772;2023-05-10T05:07:59;28.58;;;10.93;;
5774;SDS011;2913;51.120;6.772;2023-05-10T05:10:27;20.50;;;9.93;;
5774;SDS011;2913;51.120;6.772;2023-05-10T05:12:53;32.22;;;11.68;;
5774;SDS011;2913;51.120;6.772;2023-05-10T05:15:18;20.17;;;10.55;;
5774;SDS011;2913;51.120;6.772;2023-05-10T05:17:47;22.35;;;10.23;;
5774;SDS011;2913;51.120;6.772;2023-05-10T05:20:15;20.90;;;9.65;;
5774;SDS011;2913;51.120;6.772;2023-05-10T05:22:43;27.63;;;11.02;;
5774;SDS011;2913;51.120;6.772;2023-05-10T05:25:09;25.60;;;10.32;;
5774;SDS011;2913;51.120;6.772;2023-05-10T05:27:36;24.50;;;10.65;;
5774;SDS011;2913;51.120;6.772;2023-05-10T05:30:02;33.35;;;11.18;;
5774;SDS011;2913;51.120;6.772;2023-05-10T05:32:29;29.55;;;10.43;;
5774;SDS011;2913;51.120;6.772;2023-05-10T05:34:55;27.92;;;10.35;;
5774;SDS011;2913;51.120;6.772;2023-05-10T05:37:23;24.35;;;11.32;;
5774;SDS011;2913;51.120;6.772;2023-05-10T05:39:49;29.85;;;10.60;;
5774;SDS011;2913;51.120;6.772;2023-05-10T05:42:17;20.70;;;9.95;;
5774;SDS011;2913;51.120;6.772;2023-05-10T05:44:43;27.90;;;11.63;;
5774;SDS011;2913;51.120;6.772;2023-05-10T05:47:11;20.75;;;10.07;;
5774;SDS011;2913;51.120;6.772;2023-05-10T05:49:37;28.52;;;11.77;;
5774;SDS011;2913;51.120;6.772;2023-05-10T05:52:03;36.92;;;10.95;;
5774;SDS011;2913;51.120;6.772;2023-05-10T05:54:29;28.83;;;11.10;;
5774;SDS011;2913;51.120;6.772;2023-05-10T05:56:56;24.10;;;10.90;;
5774;SDS011;2913;51.120;6.772;2023-05-10T05:59:22;36.15;;;11.40;;
5774;SDS011;2913;51.120;6.772;2023-05-10T06:01:48;30.80;;;12.68;;
5774;SDS011;2913;51.120;6.772;2023-05-10T06:04:14;26.30;;;11.35;;
5774;SDS011;2913;51.120;6.772;2023-05-10T06:06:40;29.70;;;12.00;;
5774;SDS011;2913;51.120;6.772;2023-05-10T06:09:05;30.48;;;11.55;;
5774;SDS011;2913;51.120;6.772;2023-05-10T06:11:31;32.33;;;12.20;;
5774;SDS011;2913;51.120;6.772;2023-05-10T06:13:59;34.10;;;12.32;;
5774;SDS011;2913;51.120;6.772;2023-05-10T06:16:28;28.08;;;11.65;;
5774;SDS011;2913;51.120;6.772;2023-05-10T06:18:54;32.00;;;12.93;;
5774;SDS011;2913;51.120;6.772;2023-05-10T06:21:24;31.13;;;13.07;;
5774;SDS011;2913;51.120;6.772;2023-05-10T06:23:50;33.38;;;12.50;;
5774;SDS011;2913;51.120;6.772;2023-05-10T06:26:16;34.50;;;13.43;;
5774;SDS011;2913;51.120;6.772;2023-05-10T06:28:41;36.13;;;13.38;;
5774;SDS011;2913;51.120;6.772;2023-05-10T06:31:09;28.88;;;12.70;;
5774;SDS011;2913;51.120;6.772;2023-05-10T06:33:39;48.65;;;14.45;;
5774;SDS011;2913;51.120;6.772;2023-05-10T06:36:05;48.80;;;13.95;;
5774;SDS011;2913;51.120;6.772;2023-05-10T06:38:31;38.30;;;14.30;;
5774;SDS011;2913;51.120;6.772;2023-05-10T06:41:00;38.63;;;13.85;;
5774;SDS011;2913;51.120;6.772;2023-05-10T06:43:28;35.45;;;13.02;;
5774;SDS011;2913;51.120;6.772;2023-05-10T06:45:54;31.92;;;12.65;;
5774;SDS011;2913;51.120;6.772;2023-05-10T06:48:19;34.30;;;13.13;;
5774;SDS011;2913;51.120;6.772;2023-05-10T06:50:45;40.70;;;12.70;;
5774;SDS011;2913;51.120;6.772;2023-05-10T06:53:13;28.75;;;12.02;;
5774;SDS011;2913;51.120;6.772;2023-05-10T06:55:41;32.50;;;12.45;;
5774;SDS011;2913;51.120;6.772;2023-05-10T06:58:06;31.77;;;12.88;;
5774;SDS011;2913;51.120;6.772;2023-05-10T07:00:32;39.72;;;12.85;;
5774;SDS011;2913;51.120;6.772;2023-05-10T07:02:57;29.95;;;12.05;;
5774;SDS011;2913;51.120;6.772;2023-05-10T07:05:26;80.72;;;15.73;;
5774;SDS011;2913;51.120;6.772;2023-05-10T07:07:54;53.78;;;13.70;;
5774;SDS011;2913;51.120;6.772;2023-05-10T07:10:19;28.30;;;11.80;;
5774;SDS011;2913;51.120;6.772;2023-05-10T07:12:45;30.60;;;11.38;;
5774;SDS011;2913;51.120;6.772;2023-05-10T07:15:13;33.88;;;12.80;;
5774;SDS011;2913;51.120;6.772;2023-05-10T07:17:38;34.92;;;13.20;;
5774;SDS011;2913;51.120;6.772;2023-05-10T07:20:04;34.88;;;12.38;;
5774;SDS011;2913;51.120;6.772;2023-05-10T07:22:33;36.63;;;12.90;;
5774;SDS011;2913;51.120;6.772;2023-05-10T07:24:58;34.25;;;13.43;;
5774;SDS011;2913;51.120;6.772;2023-05-10T07:27:24;36.33;;;12.85;;
5774;SDS011;2913;51.120;6.772;2023-05-10T07:29:50;37.92;;;13.55;;
5774;SDS011;2913;51.120;6.772;2023-05-10T07:32:15;31.02;;;12.32;;
5774;SDS011;2913;51.120;6.772;2023-05-10T07:34:41;42.05;;;13.43;;
5774;SDS011;2913;51.120;6.772;2023-05-10T07:37:07;30.20;;;13.10;;
5774;SDS011;2913;51.120;6.772;2023-05-10T07:39:32;29.20;;;12.30;;
5774;SDS011;2913;51.120;6.772;2023-05-10T07:41:58;33.65;;;12.68;;
5774;SDS011;2913;51.120;6.772;2023-05-10T07:44:28;28.88;;;11.65;;
5774;SDS011;2913;51.120;6.772;2023-05-10T07:46:56;30.27;;;12.18;;
5774;SDS011;2913;51.120;6.772;2023-05-10T07:49:21;29.52;;;11.77;;
5774;SDS011;2913;51.120;6.772;2023-05-10T07:51:49;27.48;;;11.45;;
5774;SDS011;2913;51.120;6.772;2023-05-10T07:54:15;28.38;;;11.73;;
5774;SDS011;2913;51.120;6.772;2023-05-10T07:56:40;28.55;;;11.52;;
5774;SDS011;2913;51.120;6.772;2023-05-10T07:59:14;37.78;;;12.15;;
5774;SDS011;2913;51.120;6.772;2023-05-10T08:01:42;43.65;;;13.57;;
5774;SDS011;2913;51.120;6.772;2023-05-10T08:04:08;33.38;;;14.13;;
5774;SDS011;2913;51.120;6.772;2023-05-10T08:06:36;35.78;;;14.90;;
5774;SDS011;2913;51.120;6.772;2023-05-10T08:09:02;42.42;;;14.88;;
5774;SDS011;2913;51.120;6.772;2023-05-10T08:11:28;41.47;;;16.85;;
5774;SDS011;2913;51.120;6.772;2023-05-10T08:13:53;60.70;;;18.60;;
5774;SDS011;2913;51.120;6.772;2023-05-10T08:16:20;56.53;;;19.77;;
5774;SDS011;2913;51.120;6.772;2023-05-10T08:18:48;55.40;;;19.80;;
5774;SDS011;2913;51.120;6.772;2023-05-10T08:21:15;56.28;;;20.27;;
5774;SDS011;2913;51.120;6.772;2023-05-10T08:23:43;67.80;;;22.50;;
5774;SDS011;2913;51.120;6.772;2023-05-10T08:26:09;60.85;;;21.50;;
5774;SDS011;2913;51.120;6.772;2023-05-10T08:28:35;64.50;;;21.50;;
5774;SDS011;2913;51.120;6.772;2023-05-10T08:31:03;68.05;;;22.08;;
5774;SDS011;2913;51.120;6.772;2023-05-10T08:33:30;68.25;;;21.20;;
5774;SDS011;2913;51.120;6.772;2023-05-10T08:35:58;63.95;;;21.30;;
5774;SDS011;2913;51.120;6.772;2023-05-10T08:38:23;67.88;;;20.52;;
5774;SDS011;2913;51.120;6.772;2023-05-10T08:40:51;69.70;;;20.70;;
5774;SDS011;2913;51.120;6.772;2023-05-10T08:43:24;64.55;;;21.42;;
5774;SDS011;2913;51.120;6.772;2023-05-10T08:45:56;57.83;;;21.25;;
5774;SDS011;2913;51.120;6.772;2023-05-10T08:48:30;70.25;;;21.45;;
5774;SDS011;2913;51.120;6.772;2023-05-10T08:50:59;69.63;;;21.10;;
5774;SDS011;2913;51.120;6.772;2023-05-10T08:53:27;64.05;;;22.67;;
5774;SDS011;2913;51.120;6.772;2023-05-10T08:55:55;65.63;;;22.20;;
5774;SDS011;2913;51.120;6.772;2023-05-10T08:58:24;61.40;;;21.65;;
5774;SDS011;2913;51.120;6.772;2023-05-10T09:00:50;63.42;;;20.77;;
5774;SDS011;2913;51.120;6.772;2023-05-10T09:03:16;56.00;;;19.88;;
5774;SDS011;2913;51.120;6.772;2023-05-10T09:05:42;60.20;;;20.38;;
5774;SDS011;2913;51.120;6.772;2023-05-10T09:08:12;60.70;;;19.15;;
5774;SDS011;2913;51.120;6.772;2023-05-10T09:10:41;57.40;;;20.95;;
5774;SDS011;2913;51.120;6.772;2023-05-10T09:13:13;56.17;;;18.73;;
5774;SDS011;2913;51.120;6.772;2023-05-10T09:15:40;50.78;;;16.75;;
5774;SDS011;2913;51.120;6.772;2023-05-10T09:18:06;47.83;;;16.92;;
5774;SDS011;2913;51.120;6.772;2023-05-10T09:20:31;41.80;;;16.92;;
5774;SDS011;2913;51.120;6.772;2023-05-10T09:22:59;46.75;;;18.17;;
5774;SDS011;2913;51.120;6.772;2023-05-10T09:25:25;46.85;;;17.08;;
5774;SDS011;2913;51.120;6.772;2023-05-10T09:27:51;56.58;;;19.40;;
5774;SDS011;2913;51.120;6.772;2023-05-10T09:30:23;40.78;;;16.80;;
5774;SDS011;2913;51.120;6.772;2023-05-10T09:32:49;44.90;;;16.85;;
5774;SDS011;2913;51.120;6.772;2023-05-10T09:35:22;36.95;;;15.75;;
5774;SDS011;2913;51.120;6.772;2023-05-10T09:37:50;37.80;;;15.70;;
5774;SDS011;2913;51.120;6.772;2023-05-10T09:40:19;32.65;;;14.48;;
5774;SDS011;2913;51.120;6.772;2023-05-10T09:45:24;33.60;;;14.57;;
5774;SDS011;2913;51.120;6.772;2023-05-10T09:47:51;31.85;;;14.50;;
5774;SDS011;2913;51.120;6.772;2023-05-10T09:50:18;33.25;;;14.98;;
5774;SDS011;2913;51.120;6.772;2023-05-10T09:52:52;31.77;;;15.27;;
5774;SDS011;2913;51.120;6.772;2023-05-10T09:55:21;44.92;;;14.60;;
5774;SDS011;2913;51.120;6.772;2023-05-10T09:57:49;39.53;;;14.52;;
5774;SDS011;2913;51.120;6.772;2023-05-10T10:00:26;36.00;;;15.63;;
5774;SDS011;2913;51.120;6.772;2023-05-10T10:02:58;27.75;;;13.32;;
5774;SDS011;2913;51.120;6.772;2023-05-10T10:05:28;31.73;;;13.73;;
5774;SDS011;2913;51.120;6.772;2023-05-10T10:07:55;36.20;;;14.15;;
5774;SDS011;2913;51.120;6.772;2023-05-10T10:10:22;33.28;;;14.48;;
5774;SDS011;2913;51.120;6.772;2023-05-10T10:12:52;31.73;;;13.73;;
5774;SDS011;2913;51.120;6.772;2023-05-10T10:15:18;28.05;;;12.98;;
5774;SDS011;2913;51.120;6.772;2023-05-10T10:17:50;32.97;;;13.20;;
5774;SDS011;2913;51.120;6.772;2023-05-10T10:20:17;32.45;;;13.90;;
5774;SDS011;2913;51.120;6.772;2023-05-10T10:22:44;29.33;;;14.00;;
5774;SDS011;2913;51.120;6.772;2023-05-10T10:25:11;35.78;;;13.40;;
5774;SDS011;2913;51.120;6.772;2023-05-10T10:30:07;30.63;;;13.30;;
5774;SDS011;2913;51.120;6.772;2023-05-10T10:32:59;29.13;;;12.32;;
5774;SDS011;2913;51.120;6.772;2023-05-10T10:35:27;28.58;;;12.75;;
5774;SDS011;2913;51.120;6.772;2023-05-10T10:37:56;30.70;;;12.18;;
5774;SDS011;2913;51.120;6.772;2023-05-10T10:40:29;28.50;;;12.10;;
5774;SDS011;2913;51.120;6.772;2023-05-10T10:43:20;28.38;;;12.10;;
5774;SDS011;2913;51.120;6.772;2023-05-10T10:46:09;30.23;;;11.95;;
5774;SDS011;2913;51.120;6.772;2023-05-10T10:48:39;28.52;;;12.50;;
5774;SDS011;2913;51.120;6.772;2023-05-10T10:51:08;29.88;;;12.48;;
5774;SDS011;2913;51.120;6.772;2023-05-10T10:53:33;23.40;;;11.15;;
5774;SDS011;2913;51.120;6.772;2023-05-10T10:56:05;25.77;;;11.27;;
5774;SDS011;2913;51.120;6.772;2023-05-10T10:58:36;26.90;;;11.00;;
5774;SDS011;2913;51.120;6.772;2023-05-10T11:01:13;25.08;;;10.43;;
5774;SDS011;2913;51.120;6.772;2023-05-10T11:06:28;24.92;;;11.20;;
5774;SDS011;2913;51.120;6.772;2023-05-10T11:11:32;25.33;;;10.20;;
5774;SDS011;2913;51.120;6.772;2023-05-10T11:14:02;19.25;;;10.02;;
5774;SDS011;2913;51.120;6.772;2023-05-10T11:16:29;21.70;;;10.45;;
5774;SDS011;2913;51.120;6.772;2023-05-10T11:19:07;20.08;;;9.98;;
5774;SDS011;2913;51.120;6.772;2023-05-10T11:21:44;19.80;;;10.20;;
5774;SDS011;2913;51.120;6.772;2023-05-10T11:24:38;21.02;;;9.13;;
5774;SDS011;2913;51.120;6.772;2023-05-10T11:27:05;19.00;;;9.27;;
5774;SDS011;2913;51.120;6.772;2023-05-10T11:29:33;18.48;;;9.80;;
5774;SDS011;2913;51.120;6.772;2023-05-10T11:31:58;29.02;;;10.38;;
5774;SDS011;2913;51.120;6.772;2023-05-10T11:34:32;19.92;;;9.43;;
5774;SDS011;2913;51.120;6.772;2023-05-10T11:36:59;24.15;;;10.95;;
5774;SDS011;2913;51.120;6.772;2023-05-10T11:39:28;18.70;;;9.68;;
5774;SDS011;2913;51.120;6.772;2023-05-10T11:41:56;19.70;;;9.63;;
5774;SDS011;2913;51.120;6.772;2023-05-10T11:44:22;19.02;;;8.90;;
5774;SDS011;2913;51.120;6.772;2023-05-10T11:46:51;21.42;;;9.68;;
5774;SDS011;2913;51.120;6.772;2023-05-10T11:49:17;26.55;;;9.63;;
5774;SDS011;2913;51.120;6.772;2023-05-10T11:51:43;17.30;;;9.23;;
5774;SDS011;2913;51.120;6.772;2023-05-10T11:54:09;18.15;;;9.05;;
5774;SDS011;2913;51.120;6.772;2023-05-10T11:56:36;22.38;;;9.68;;
5774;SDS011;2913;51.120;6.772;2023-05-10T11:59:03;18.95;;;9.13;;
5774;SDS011;2913;51.120;6.772;2023-05-10T12:01:29;22.88;;;9.75;;
5774;SDS011;2913;51.120;6.772;2023-05-10T12:03:58;18.00;;;8.95;;
5774;SDS011;2913;51.120;6.772;2023-05-10T12:06:31;19.20;;;8.38;;
5774;SDS011;2913;51.120;6.772;2023-05-10T12:09:02;17.50;;;8.45;;
5774;SDS011;2913;51.120;6.772;2023-05-10T12:11:36;14.63;;;7.50;;
5774;SDS011;2913;51.120;6.772;2023-05-10T12:14:05;24.80;;;6.67;;
5774;SDS011;2913;51.120;6.772;2023-05-10T12:16:31;13.80;;;7.30;;
5774;SDS011;2913;51.120;6.772;2023-05-10T12:19:00;16.38;;;7.63;;
5774;SDS011;2913;51.120;6.772;2023-05-10T12:21:27;16.40;;;8.18;;
5774;SDS011;2913;51.120;6.772;2023-05-10T12:23:54;14.90;;;7.88;;
5774;SDS011;2913;51.120;6.772;2023-05-10T12:26:25;16.75;;;7.68;;
5774;SDS011;2913;51.120;6.772;2023-05-10T12:28:54;14.50;;;7.32;;
5774;SDS011;2913;51.120;6.772;2023-05-10T12:31:20;21.00;;;8.70;;
5774;SDS011;2913;51.120;6.772;2023-05-10T12:33:46;18.35;;;8.23;;
5774;SDS011;2913;51.120;6.772;2023-05-10T12:36:14;15.52;;;8.13;;
5774;SDS011;2913;51.120;6.772;2023-05-10T12:38:46;14.15;;;7.47;;
5774;SDS011;2913;51.120;6.772;2023-05-10T12:41:16;15.63;;;8.77;;
5774;SDS011;2913;51.120;6.772;2023-05-10T12:43:43;18.70;;;8.07;;
5774;SDS011;2913;51.120;6.772;2023-05-10T12:46:12;17.77;;;7.72;;
5774;SDS011;2913;51.120;6.772;2023-05-10T12:48:39;18.45;;;7.97;;
5774;SDS011;2913;51.120;6.772;2023-05-10T12:51:06;19.58;;;8.43;;
5774;SDS011;2913;51.120;6.772;2023-05-10T12:53:38;18.15;;;8.02;;
5774;SDS011;2913;51.120;6.772;2023-05-10T12:56:06;17.40;;;9.23;;
5774;SDS011;2913;51.120;6.772;2023-05-10T12:58:32;19.10;;;8.30;;
5774;SDS011;2913;51.120;6.772;2023-05-10T13:01:00;17.58;;;8.90;;
5774;SDS011;2913;51.120;6.772;2023-05-10T13:03:29;19.27;;;8.65;;
5774;SDS011;2913;51.120;6.772;2023-05-10T13:05:54;17.45;;;8.18;;
5774;SDS011;2913;51.120;6.772;2023-05-10T13:08:20;31.52;;;8.18;;
5774;SDS011;2913;51.120;6.772;2023-05-10T13:10:45;19.42;;;8.65;;
5774;SDS011;2913;51.120;6.772;2023-05-10T13:13:11;23.40;;;10.38;;
5774;SDS011;2913;51.120;6.772;2023-05-10T13:15:37;20.52;;;9.85;;
5774;SDS011;2913;51.120;6.772;2023-05-10T13:18:03;18.85;;;9.60;;
5774;SDS011;2913;51.120;6.772;2023-05-10T13:20:28;22.73;;;11.27;;
5774;SDS011;2913;51.120;6.772;2023-05-10T13:22:54;22.80;;;10.93;;
5774;SDS011;2913;51.120;6.772;2023-05-10T13:25:19;19.10;;;10.07;;
5774;SDS011;2913;51.120;6.772;2023-05-10T13:27:45;22.38;;;10.10;;
5774;SDS011;2913;51.120;6.772;2023-05-10T13:30:13;37.03;;;9.30;;
5774;SDS011;2913;51.120;6.772;2023-05-10T13:32:41;19.85;;;9.82;;
5774;SDS011;2913;51.120;6.772;2023-05-10T13:35:07;22.73;;;10.90;;
5774;SDS011;2913;51.120;6.772;2023-05-10T13:37:33;23.00;;;10.40;;
5774;SDS011;2913;51.120;6.772;2023-05-10T13:40:02;21.77;;;10.45;;
5774;SDS011;2913;51.120;6.772;2023-05-10T13:42:29;23.60;;;10.43;;
5774;SDS011;2913;51.120;6.772;2023-05-10T13:44:54;29.05;;;10.50;;
5774;SDS011;2913;51.120;6.772;2023-05-10T13:47:20;30.48;;;10.57;;
5774;SDS011;2913;51.120;6.772;2023-05-10T13:49:46;34.75;;;9.48;;
5774;SDS011;2913;51.120;6.772;2023-05-10T13:52:16;16.02;;;7.55;;
5774;SDS011;2913;51.120;6.772;2023-05-10T13:54:48;17.30;;;7.50;;
5774;SDS011;2913;51.120;6.772;2023-05-10T13:57:19;43.42;;;9.07;;
5774;SDS011;2913;51.120;6.772;2023-05-10T13:59:47;19.95;;;8.45;;
5774;SDS011;2913;51.120;6.772;2023-05-10T14:02:13;16.45;;;8.30;;
5774;SDS011;2913;51.120;6.772;2023-05-10T14:04:39;17.30;;;8.15;;
5774;SDS011;2913;51.120;6.772;2023-05-10T14:07:04;20.27;;;8.68;;
5774;SDS011;2913;51.120;6.772;2023-05-10T14:09:30;34.47;;;8.60;;
5774;SDS011;2913;51.120;6.772;2023-05-10T14:11:56;25.10;;;9.30;;
5774;SDS011;2913;51.120;6.772;2023-05-10T14:14:22;26.75;;;9.93;;
5774;SDS011;2913;51.120;6.772;2023-05-10T14:16:48;20.98;;;9.30;;
5774;SDS011;2913;51.120;6.772;2023-05-10T14:19:13;18.23;;;8.23;;
5774;SDS011;2913;51.120;6.772;2023-05-10T14:21:39;15.15;;;8.30;;
5774;SDS011;2913;51.120;6.772;2023-05-10T14:24:08;20.30;;;9.15;;
5774;SDS011;2913;51.120;6.772;2023-05-10T14:26:38;16.45;;;8.45;;
5774;SDS011;2913;51.120;6.772;2023-05-10T14:29:03;15.55;;;8.45;;
5774;SDS011;2913;51.120;6.772;2023-05-10T14:31:29;19.17;;;9.00;;
5774;SDS011;2913;51.120;6.772;2023-05-10T14:33:57;16.85;;;8.70;;
5774;SDS011;2913;51.120;6.772;2023-05-10T14:36:25;18.67;;;9.27;;
5774;SDS011;2913;51.120;6.772;2023-05-10T14:38:54;18.83;;;8.05;;
5774;SDS011;2913;51.120;6.772;2023-05-10T14:41:21;24.77;;;8.43;;
5774;SDS011;2913;51.120;6.772;2023-05-10T14:43:49;27.60;;;9.45;;
5774;SDS011;2913;51.120;6.772;2023-05-10T14:46:20;23.27;;;9.27;;
5774;SDS011;2913;51.120;6.772;2023-05-10T14:48:45;18.88;;;8.75;;
5774;SDS011;2913;51.120;6.772;2023-05-10T14:51:16;17.30;;;8.80;;
5774;SDS011;2913;51.120;6.772;2023-05-10T14:53:42;21.48;;;8.40;;
5774;SDS011;2913;51.120;6.772;2023-05-10T14:56:07;17.38;;;7.80;;
5774;SDS011;2913;51.120;6.772;2023-05-10T14:58:33;19.88;;;9.38;;
5774;SDS011;2913;51.120;6.772;2023-05-10T15:01:01;16.00;;;7.05;;
5774;SDS011;2913;51.120;6.772;2023-05-10T15:03:27;15.02;;;7.63;;
5774;SDS011;2913;51.120;6.772;2023-05-10T15:05:52;20.65;;;8.60;;
5774;SDS011;2913;51.120;6.772;2023-05-10T15:08:18;13.20;;;5.97;;
5774;SDS011;2913;51.120;6.772;2023-05-10T15:10:43;12.35;;;6.68;;
5774;SDS011;2913;51.120;6.772;2023-05-10T15:13:09;13.23;;;6.43;;
5774;SDS011;2913;51.120;6.772;2023-05-10T15:15:37;10.82;;;6.22;;
5774;SDS011;2913;51.120;6.772;2023-05-10T15:18:03;20.02;;;6.68;;
5774;SDS011;2913;51.120;6.772;2023-05-10T15:20:29;10.43;;;5.97;;
5774;SDS011;2913;51.120;6.772;2023-05-10T15:22:55;9.65;;;5.00;;
5774;SDS011;2913;51.120;6.772;2023-05-10T15:25:20;10.38;;;5.20;;
5774;SDS011;2913;51.120;6.772;2023-05-10T15:27:48;8.80;;;4.43;;
5774;SDS011;2913;51.120;6.772;2023-05-10T15:30:16;12.18;;;4.75;;
5774;SDS011;2913;51.120;6.772;2023-05-10T15:32:41;10.07;;;5.05;;
5774;SDS011;2913;51.120;6.772;2023-05-10T15:35:07;9.50;;;4.78;;
5774;SDS011;2913;51.120;6.772;2023-05-10T15:37:35;7.20;;;4.78;;